ADDS METAR Data INFO
IDs: Format: Raw Decoded Include TAF

Data at: 1406 UTC 24 Feb 2018

KMSO 241353Z 00000KT 10SM BKN065 M09/M12 A2990 RMK AO2 SLP170 T10941117
KMSO 241253Z 00000KT 10SM OVC060 M09/M12 A2992 RMK AO2 SLP177 T10891117
KMSO 241153Z AUTO 26004KT 10SM BKN070 OVC085 M09/M12 A2994 RMK AO2 SLP182 T10891117 11072 21094 58017
KMSO 241053Z AUTO 34003KT 10SM OVC055 M08/M12 A2996 RMK AO2 SLP191 T10831117
KMSO 240953Z AUTO 30004KT 10SM OVC050 M09/M12 A2997 RMK AO2 SLP199 T10891122
KMSO 240853Z AUTO 36004KT 10SM BKN048 BKN100 M09/M13 A2999 RMK AO2 SLP207 T10891128 56017
KMSO 240753Z AUTO 36003KT 10SM OVC046 M08/M12 A3001 RMK AO2 SLP211 T10781117
KMSO 240653Z AUTO 00000KT 10SM OVC050 M08/M11 A3002 RMK AO2 SLP218 T10831111 410441167
KMSO 240553Z AUTO 00000KT 10SM FEW050 SCT065 OVC080 M08/M11 A3005 RMK AO2 SLP229 T10831111 11044 21083 58013
KMSO 240453Z AUTO 29003KT 10SM BKN050 OVC060 M07/M12 A3007 RMK AO2 SLP235 T10721117
KMSO 240353Z 01004KT 10SM OVC065 M07/M11 A3008 RMK AO2 SLP237 T10671111
KMSO 240253Z 33007KT 10SM OVC065 M06/M12 A3009 RMK AO2 SLP243 T10611122 58003
KMSO 240153Z 33007KT 10SM FEW050 OVC070 M06/M13 A3010 RMK AO2 SLP248 T10561133
KMSO 240053Z 32009KT 10SM OVC050 M05/M13 A3010 RMK AO2 SLP248 T10501133
KMSO 232353Z 29009KT 10SM SCT055 OVC100 M05/M12 A3010 RMK AO2 SLP248 T10501117 11050 21111 56014
KMSO 232253Z 30004KT 10SM OVC050 M06/M12 A3010 RMK AO2 SLP249 T10561117
KMSO 232153Z 23004KT 10SM OVC050 M07/M12 A3012 RMK AO2 SLP257 T10721117
KMSO 232053Z 22003KT 10SM OVC050 M08/M12 A3014 RMK AO2 SLP266 T10781122 58026
KMSO 231953Z 00000KT 10SM OVC050 M09/M13 A3018 RMK AO2 SLP278 T10891128
KMSO 231853Z 00000KT 10SM OVC050 M09/M13 A3021 RMK AO2 SLP288 T10941133
KMSO 231753Z 00000KT 10SM OVC045 M11/M14 A3023 RMK AO2 SLP293 T11111139 11106 21161 58001
KMSO 231653Z 00000KT 9SM OVC048 M12/M14 A3023 RMK AO2 SLP294 T11171144
KMSO 231553Z 25003KT 9SM OVC049 M12/M15 A3023 RMK AO2 SLP293 T11171150
KMSO 231453Z 00000KT 10SM OVC049 M13/M16 A3023 RMK AO2 SLP294 T11281156 53010
KMSO 231353Z 00000KT 10SM OVC050 M13/M16 A3022 RMK AO2 SLP288 T11331161
KMSO 231253Z 00000KT 10SM OVC050 M14/M17 A3021 RMK AO2 SLP287 T11391167
KMSO 231153Z AUTO 00000KT 10SM OVC060 M15/M18 A3020 RMK AO2 SLP284 T11501178 11094 21167 53006
KMSO 231053Z AUTO 00000KT 10SM CLR M15/M18 A3019 RMK AO2 SLP279 T11501178
KMSO 230953Z AUTO 01003KT 10SM CLR M15/M18 A3018 RMK AO2 SLP278 T11501178
KMSO 230853Z AUTO 00000KT 10SM CLR M14/M18 A3018 RMK AO2 SLP275 T11441178 53012
KMSO 230753Z AUTO 07003KT 10SM CLR M12/M16 A3016 RMK AO2 SLP268 T11221156
KMSO 230653Z AUTO VRB03KT 10SM CLR M11/M16 A3015 RMK AO2 SLP262 T11111156 410441133
KMSO 230553Z AUTO 30003KT 10SM CLR M09/M15 A3014 RMK AO2 SLP261 T10941150 11061 21100 53014
KMSO 230453Z 33008KT 10SM CLR M09/M14 A3012 RMK AO2 SLP255 T10891144
KMSO 230353Z 32006KT 10SM OVC050 M08/M14 A3010 RMK AO2 SLP247 T10781139
KMSO 230253Z 28010KT 10SM OVC070 M07/M13 A3009 RMK AO2 SLP246 T10721133 53016